Seahope II — 9HA2233 — position and weather

sailwx.info

Track history (hours):
 
Tides and Currents Weather Stations Pressure Air Temp Water Temp Dewpoint Dewpoint Depression Visibility Wind Speed Wind Dir Waves Ship Positions

Seahope II

Last reported at 2015-Feb-28 17:16 UTC. Time now 2015-Mar-01 12:31 UTC.
Position N 36°00' W 005°13'.

Length 190 m; draft 11 m.

Type: Cargo ship. MMSI: 248185000.

Date/timePositionNaut miles runAvg speedWind from/ knotsBaromVisibWave heightAir tempDewpointWater temp
2015-Feb-28 17:16N 36°00' W 005°13'  
2015-Feb-22 15:09N 50°33' E 000°20'5111.0
2015-Feb-22 10:30N 51°01' E 001°28'1515.7
2015-Feb-22 09:33N 51°12' E 001°43'1514.4
2015-Feb-22 08:33N 51°24' E 001°57'1212.4
2015-Feb-22 07:33N 51°21' E 002°16'1312.8
2015-Feb-22 06:33N 51°23' E 002°36'1111.1
2015-Feb-22 05:33N 51°25' E 002°54'1711.2
2015-Feb-22 04:03N 51°24' E 003°21'510.8
2015-Feb-22 03:33N 51°25' E 003°29'8 8.0
2015-Feb-22 02:33N 51°26' E 003°42'7 7.3
2015-Feb-22 01:33N 51°20' E 003°49'1 1.0
2015-Feb-22 00:33N 51°19' E 003°50'4 4.2
2015-Feb-21 23:33N 51°15' E 003°49'4 4.4
2015-Feb-21 22:33N 51°10' E 003°48'5 4.6
2015-Feb-21 21:34N 51°06' E 003°44'1 0.6
2015-Feb-21 20:32N 51°06' E 003°44'0 0.0
2015-Feb-21 19:32N 51°06' E 003°44'0 0.0
2015-Feb-21 18:32N 51°06' E 003°44'0 0.0
2015-Feb-21 17:29N 51°06' E 003°44'0 0.0
2015-Feb-21 16:26N 51°06' E 003°44'0 0.0
2015-Feb-21 15:29N 51°06' E 003°44'0 0.0
2015-Feb-21 14:26N 51°06' E 003°44'0 0.0
2015-Feb-21 13:29N 51°06' E 003°44'0 0.0
2015-Feb-21 12:29N 51°06' E 003°44'0 0.0
2015-Feb-21 11:29N 51°06' E 003°44'0 0.0
2015-Feb-21 10:29N 51°06' E 003°44'0 0.0
2015-Feb-21 09:29N 51°06' E 003°44'0 0.0
2015-Feb-21 08:32N 51°06' E 003°44'0 0.0
2015-Feb-21 07:30N 51°06' E 003°44'0 0.0
2015-Feb-21 06:33N 51°06' E 003°44'0 0.0
2015-Feb-21 05:31N 51°06' E 003°44'0 0.0
2015-Feb-21 04:31N 51°06' E 003°44'0 0.0
2015-Feb-21 03:31N 51°06' E 003°44'0 0.0
2015-Feb-21 02:31N 51°06' E 003°44'0 0.0
2015-Feb-21 01:30N 51°06' E 003°44'0 0.1
2015-Feb-21 00:33N 51°06' E 003°44'0 0.0
2015-Feb-20 23:28N 51°06' E 003°44'0 0.0
2015-Feb-20 22:34N 51°06' E 003°44'0 0.0
2015-Feb-20 21:25N 51°06' E 003°44'0 0.0
2015-Feb-20 20:33N 51°06' E 003°44'0 0.0
2015-Feb-20 19:32N 51°06' E 003°44'0 0.0
2015-Feb-20 18:32N 51°06' E 003°44'0 0.0
2015-Feb-20 17:33N 51°06' E 003°44'0 0.0
2015-Feb-20 16:30N 51°06' E 003°44'0 0.0
2015-Feb-20 15:33N 51°06' E 003°44'0 0.0
2015-Feb-20 14:29N 51°06' E 003°44'0 0.0
2015-Feb-20 13:28N 51°06' E 003°44'0 0.0
2015-Feb-20 12:31N 51°06' E 003°44'0 0.0
2015-Feb-20 11:31N 51°06' E 003°44'0 0.0
2015-Feb-20 10:31N 51°06' E 003°44'0 0.0
2015-Feb-20 09:31N 51°06' E 003°44'0 0.0
2015-Feb-20 08:31N 51°06' E 003°44'0 0.0
2015-Feb-20 07:27N 51°06' E 003°44'0 0.0
2015-Feb-20 06:27N 51°06' E 003°44'0 0.0
2015-Feb-20 05:33N 51°06' E 003°44'0 0.0
2015-Feb-20 04:30N 51°06' E 003°44'0 0.0
2015-Feb-20 03:33N 51°06' E 003°44'0 0.0
2015-Feb-20 02:33N 51°06' E 003°44'0 0.0
2015-Feb-20 01:27N 51°06' E 003°44'0 0.0
2015-Feb-20 00:25N 51°06' E 003°44'0 0.0
2015-Feb-19 23:33N 51°06' E 003°44'0 0.0
2015-Feb-19 22:33N 51°06' E 003°44'0 0.0
2015-Feb-19 21:34N 51°06' E 003°44'0 0.0
2015-Feb-19 20:30N 51°06' E 003°44'0 0.0
2015-Feb-19 19:31N 51°06' E 003°44'0 0.0
2015-Feb-19 18:31N 51°06' E 003°44'0 0.0
2015-Feb-19 17:31N 51°06' E 003°44'0 0.0
2015-Feb-19 16:28N 51°06' E 003°44'0 0.0
2015-Feb-19 15:33N 51°06' E 003°44'0 0.0
2015-Feb-19 14:33N 51°06' E 003°44'0 0.0
2015-Feb-19 13:33N 51°06' E 003°44'0 0.0
2015-Feb-19 12:33N 51°06' E 003°44'0 0.0
2015-Feb-19 11:32N 51°06' E 003°44'0 0.0
2015-Feb-19 10:31N 51°06' E 003°44'0 0.0
2015-Feb-19 09:33N 51°06' E 003°44'0 0.0
2015-Feb-19 08:33N 51°06' E 003°44'0 0.0
2015-Feb-19 07:33N 51°06' E 003°44'0 0.0
2015-Feb-19 06:34N 51°06' E 003°44'0 0.0
2015-Feb-19 05:34N 51°06' E 003°44'0 0.0
2015-Feb-19 04:33N 51°06' E 003°44'0 0.0
2015-Feb-19 03:33N 51°06' E 003°44'0 0.0
2015-Feb-19 02:33N 51°06' E 003°44'0 0.1
2015-Feb-19 01:34N 51°06' E 003°44'6 6.2
2015-Feb-19 00:33N 51°12' E 003°48'7 6.5
2015-Feb-18 23:33N 51°18' E 003°50'2 2.1
2015-Feb-18 22:33N 51°20' E 003°49'0 0.5
2015-Feb-18 21:33N 51°20' E 003°49'8 8.1
2015-Feb-18 20:33N 51°26' E 003°40'2210.8
2015-Feb-18 18:33N 51°24' E 003°05'1110.5
2015-Feb-18 17:33N 51°22' E 002°49'  
Track history (hours):
 
Tides and Currents Weather Stations Pressure Air Temp Water Temp Dewpoint Dewpoint Depression Visibility Wind Speed Wind Dir Waves Ship Positions

Seahope II

Last reported at 2015-Feb-28 17:16 UTC. Time now 2015-Mar-01 12:31 UTC.
Position N 36°00' W 005°13'.

Length 190 m; draft 11 m.

Type: Cargo ship. MMSI: 248185000.

Date/timePositionNaut miles runAvg speedWind from/ knotsBaromVisibWave heightAir tempDewpointWater temp
2015-Feb-28 17:16N 36°00' W 005°13'  
2015-Feb-22 15:09N 50°33' E 000°20'5111.0
2015-Feb-22 10:30N 51°01' E 001°28'1515.7
2015-Feb-22 09:33N 51°12' E 001°43'1514.4
2015-Feb-22 08:33N 51°24' E 001°57'1212.4
2015-Feb-22 07:33N 51°21' E 002°16'1312.8
2015-Feb-22 06:33N 51°23' E 002°36'1111.1
2015-Feb-22 05:33N 51°25' E 002°54'1711.2
2015-Feb-22 04:03N 51°24' E 003°21'510.8
2015-Feb-22 03:33N 51°25' E 003°29'8 8.0
2015-Feb-22 02:33N 51°26' E 003°42'7 7.3
2015-Feb-22 01:33N 51°20' E 003°49'1 1.0
2015-Feb-22 00:33N 51°19' E 003°50'4 4.2
2015-Feb-21 23:33N 51°15' E 003°49'4 4.4
2015-Feb-21 22:33N 51°10' E 003°48'5 4.6
2015-Feb-21 21:34N 51°06' E 003°44'1 0.6
2015-Feb-21 20:32N 51°06' E 003°44'0 0.0
2015-Feb-21 19:32N 51°06' E 003°44'0 0.0
2015-Feb-21 18:32N 51°06' E 003°44'0 0.0
2015-Feb-21 17:29N 51°06' E 003°44'0 0.0
2015-Feb-21 16:26N 51°06' E 003°44'0 0.0
2015-Feb-21 15:29N 51°06' E 003°44'0 0.0
2015-Feb-21 14:26N 51°06' E 003°44'0 0.0
2015-Feb-21 13:29N 51°06' E 003°44'0 0.0
2015-Feb-21 12:29N 51°06' E 003°44'0 0.0
2015-Feb-21 11:29N 51°06' E 003°44'0 0.0
2015-Feb-21 10:29N 51°06' E 003°44'0 0.0
2015-Feb-21 09:29N 51°06' E 003°44'0 0.0
2015-Feb-21 08:32N 51°06' E 003°44'0 0.0
2015-Feb-21 07:30N 51°06' E 003°44'0 0.0
2015-Feb-21 06:33N 51°06' E 003°44'0 0.0
2015-Feb-21 05:31N 51°06' E 003°44'0 0.0
2015-Feb-21 04:31N 51°06' E 003°44'0 0.0
2015-Feb-21 03:31N 51°06' E 003°44'0 0.0
2015-Feb-21 02:31N 51°06' E 003°44'0 0.0
2015-Feb-21 01:30N 51°06' E 003°44'0 0.1
2015-Feb-21 00:33N 51°06' E 003°44'0 0.0
2015-Feb-20 23:28N 51°06' E 003°44'0 0.0
2015-Feb-20 22:34N 51°06' E 003°44'0 0.0
2015-Feb-20 21:25N 51°06' E 003°44'0 0.0
2015-Feb-20 20:33N 51°06' E 003°44'0 0.0
2015-Feb-20 19:32N 51°06' E 003°44'0 0.0
2015-Feb-20 18:32N 51°06' E 003°44'0 0.0
2015-Feb-20 17:33N 51°06' E 003°44'0 0.0
2015-Feb-20 16:30N 51°06' E 003°44'0 0.0
2015-Feb-20 15:33N 51°06' E 003°44'0 0.0
2015-Feb-20 14:29N 51°06' E 003°44'0 0.0
2015-Feb-20 13:28N 51°06' E 003°44'0 0.0
2015-Feb-20 12:31N 51°06' E 003°44'0 0.0
2015-Feb-20 11:31N 51°06' E 003°44'0 0.0
2015-Feb-20 10:31N 51°06' E 003°44'0 0.0
2015-Feb-20 09:31N 51°06' E 003°44'0 0.0
2015-Feb-20 08:31N 51°06' E 003°44'0 0.0
2015-Feb-20 07:27N 51°06' E 003°44'0 0.0
2015-Feb-20 06:27N 51°06' E 003°44'0 0.0
2015-Feb-20 05:33N 51°06' E 003°44'0 0.0
2015-Feb-20 04:30N 51°06' E 003°44'0 0.0
2015-Feb-20 03:33N 51°06' E 003°44'0 0.0
2015-Feb-20 02:33N 51°06' E 003°44'0 0.0
2015-Feb-20 01:27N 51°06' E 003°44'0 0.0
2015-Feb-20 00:25N 51°06' E 003°44'0 0.0
2015-Feb-19 23:33N 51°06' E 003°44'0 0.0
2015-Feb-19 22:33N 51°06' E 003°44'0 0.0
2015-Feb-19 21:34N 51°06' E 003°44'0 0.0
2015-Feb-19 20:30N 51°06' E 003°44'0 0.0
2015-Feb-19 19:31N 51°06' E 003°44'0 0.0
2015-Feb-19 18:31N 51°06' E 003°44'0 0.0
2015-Feb-19 17:31N 51°06' E 003°44'0 0.0
2015-Feb-19 16:28N 51°06' E 003°44'0 0.0
2015-Feb-19 15:33N 51°06' E 003°44'0 0.0
2015-Feb-19 14:33N 51°06' E 003°44'0 0.0
2015-Feb-19 13:33N 51°06' E 003°44'0 0.0
2015-Feb-19 12:33N 51°06' E 003°44'0 0.0
2015-Feb-19 11:32N 51°06' E 003°44'0 0.0
2015-Feb-19 10:31N 51°06' E 003°44'0 0.0
2015-Feb-19 09:33N 51°06' E 003°44'0 0.0
2015-Feb-19 08:33N 51°06' E 003°44'0 0.0
2015-Feb-19 07:33N 51°06' E 003°44'0 0.0
2015-Feb-19 06:34N 51°06' E 003°44'0 0.0
2015-Feb-19 05:34N 51°06' E 003°44'0 0.0
2015-Feb-19 04:33N 51°06' E 003°44'0 0.0
2015-Feb-19 03:33N 51°06' E 003°44'0 0.0
2015-Feb-19 02:33N 51°06' E 003°44'0 0.1
2015-Feb-19 01:34N 51°06' E 003°44'6 6.2
2015-Feb-19 00:33N 51°12' E 003°48'7 6.5
2015-Feb-18 23:33N 51°18' E 003°50'2 2.1
2015-Feb-18 22:33N 51°20' E 003°49'0 0.5
2015-Feb-18 21:33N 51°20' E 003°49'8 8.1
2015-Feb-18 20:33N 51°26' E 003°40'2210.8
2015-Feb-18 18:33N 51°24' E 003°05'1110.5
2015-Feb-18 17:33N 51°22' E 002°49'  

Dump ship's entire track history